sensor_id;sensor_type;location;lat;lon;timestamp;pressure;altitude;pressure_sealevel;temperature;humidity
68871;BME280;55906;52.278;6.808;2023-12-28T00:01:37;100692.84;;;9.93;79.80
68871;BME280;55906;52.278;6.808;2023-12-28T00:04:05;100702.63;;;9.99;79.92
68871;BME280;55906;52.278;6.808;2023-12-28T00:06:32;100685.94;;;9.97;80.83
68871;BME280;55906;52.278;6.808;2023-12-28T00:08:58;100696.44;;;9.97;80.41
68871;BME280;55906;52.278;6.808;2023-12-28T00:11:25;100705.34;;;10.02;80.55
68871;BME280;55906;52.278;6.808;2023-12-28T00:13:52;100703.63;;;10.04;80.30
68871;BME280;55906;52.278;6.808;2023-12-28T00:16:19;100687.06;;;10.07;80.44
68871;BME280;55906;52.278;6.808;2023-12-28T00:18:46;100681.91;;;10.11;80.30
68871;BME280;55906;52.278;6.808;2023-12-28T00:21:14;100694.13;;;10.09;80.36
68871;BME280;55906;52.278;6.808;2023-12-28T00:23:40;100685.38;;;10.10;80.72
68871;BME280;55906;52.278;6.808;2023-12-28T00:26:07;100696.91;;;10.15;80.53
68871;BME280;55906;52.278;6.808;2023-12-28T00:28:34;100696.06;;;10.16;80.50
68871;BME280;55906;52.278;6.808;2023-12-28T00:31:01;100697.09;;;10.21;80.32
68871;BME280;55906;52.278;6.808;2023-12-28T00:33:27;100703.28;;;10.23;80.58
68871;BME280;55906;52.278;6.808;2023-12-28T00:35:54;100713.00;;;10.27;80.34
68871;BME280;55906;52.278;6.808;2023-12-28T00:38:22;100728.09;;;10.35;80.01
68871;BME280;55906;52.278;6.808;2023-12-28T00:40:49;100710.78;;;10.43;79.76
68871;BME280;55906;52.278;6.808;2023-12-28T00:43:15;100708.22;;;10.46;79.50
68871;BME280;55906;52.278;6.808;2023-12-28T00:45:42;100720.53;;;10.47;79.12
68871;BME280;55906;52.278;6.808;2023-12-28T00:48:09;100715.47;;;10.56;79.16
68871;BME280;55906;52.278;6.808;2023-12-28T00:50:35;100712.72;;;10.51;78.68
68871;BME280;55906;52.278;6.808;2023-12-28T00:53:02;100732.19;;;10.58;78.58
68871;BME280;55906;52.278;6.808;2023-12-28T00:55:30;100746.50;;;10.71;78.72
68871;BME280;55906;52.278;6.808;2023-12-28T00:57:57;100732.53;;;10.73;78.42
68871;BME280;55906;52.278;6.808;2023-12-28T01:00:24;100735.22;;;10.76;78.57
68871;BME280;55906;52.278;6.808;2023-12-28T01:02:51;100759.13;;;10.85;78.02
68871;BME280;55906;52.278;6.808;2023-12-28T01:05:17;100764.34;;;10.84;78.23
68871;BME280;55906;52.278;6.808;2023-12-28T01:07:46;100756.50;;;10.85;78.64
68871;BME280;55906;52.278;6.808;2023-12-28T01:10:13;100758.34;;;10.89;78.06
68871;BME280;55906;52.278;6.808;2023-12-28T01:12:41;100761.91;;;10.92;78.28
68871;BME280;55906;52.278;6.808;2023-12-28T01:15:08;100762.03;;;10.98;78.21
68871;BME280;55906;52.278;6.808;2023-12-28T01:17:35;100757.53;;;10.92;77.99
68871;BME280;55906;52.278;6.808;2023-12-28T01:20:01;100767.28;;;10.98;77.73
68871;BME280;55906;52.278;6.808;2023-12-28T01:22:29;100787.63;;;11.05;77.66
68871;BME280;55906;52.278;6.808;2023-12-28T01:24:55;100785.81;;;11.02;78.64
68871;BME280;55906;52.278;6.808;2023-12-28T01:27:22;100776.16;;;11.01;78.53
68871;BME280;55906;52.278;6.808;2023-12-28T01:29:50;100779.66;;;11.02;78.49
68871;BME280;55906;52.278;6.808;2023-12-28T01:32:17;100780.72;;;11.10;78.48
68871;BME280;55906;52.278;6.808;2023-12-28T01:34:43;100763.94;;;11.05;78.25
68871;BME280;55906;52.278;6.808;2023-12-28T01:37:10;100779.66;;;11.02;79.00
68871;BME280;55906;52.278;6.808;2023-12-28T01:39:37;100764.81;;;11.04;78.42
68871;BME280;55906;52.278;6.808;2023-12-28T01:42:04;100769.94;;;10.98;79.32
68871;BME280;55906;52.278;6.808;2023-12-28T01:44:30;100773.53;;;11.01;79.47
68871;BME280;55906;52.278;6.808;2023-12-28T01:46:59;100768.13;;;10.95;79.43
68871;BME280;55906;52.278;6.808;2023-12-28T01:49:26;100780.53;;;11.01;79.22
68871;BME280;55906;52.278;6.808;2023-12-28T01:51:53;100777.06;;;11.03;79.73
68871;BME280;55906;52.278;6.808;2023-12-28T01:54:20;100778.81;;;11.03;79.52
68871;BME280;55906;52.278;6.808;2023-12-28T01:56:46;100776.09;;;10.98;80.08
68871;BME280;55906;52.278;6.808;2023-12-28T01:59:13;100769.06;;;10.99;80.12
68871;BME280;55906;52.278;6.808;2023-12-28T02:01:40;100784.09;;;11.03;80.07
68871;BME280;55906;52.278;6.808;2023-12-28T02:04:08;100785.06;;;11.08;80.49
68871;BME280;55906;52.278;6.808;2023-12-28T02:06:35;100779.72;;;11.03;80.21
68871;BME280;55906;52.278;6.808;2023-12-28T02:09:01;100789.38;;;11.04;81.05
68871;BME280;55906;52.278;6.808;2023-12-28T02:11:28;100791.22;;;11.08;80.54
68871;BME280;55906;52.278;6.808;2023-12-28T02:13:55;100790.28;;;11.05;81.30
68871;BME280;55906;52.278;6.808;2023-12-28T02:16:26;100787.56;;;11.02;81.42
68871;BME280;55906;52.278;6.808;2023-12-28T02:18:56;100800.81;;;11.05;82.12
68871;BME280;55906;52.278;6.808;2023-12-28T02:21:28;100780.63;;;11.05;82.20
68871;BME280;55906;52.278;6.808;2023-12-28T02:23:57;100782.47;;;11.09;81.30
68871;BME280;55906;52.278;6.808;2023-12-28T02:26:25;100780.63;;;11.05;81.79
68871;BME280;55906;52.278;6.808;2023-12-28T02:28:51;100777.97;;;11.04;82.45
68871;BME280;55906;52.278;6.808;2023-12-28T02:31:21;100785.13;;;11.11;82.19
68871;BME280;55906;52.278;6.808;2023-12-28T02:33:55;100783.34;;;11.08;82.39
68871;BME280;55906;52.278;6.808;2023-12-28T02:36:26;100785.97;;;11.08;82.69
68871;BME280;55906;52.278;6.808;2023-12-28T02:38:55;100786.75;;;11.04;82.69
68871;BME280;55906;52.278;6.808;2023-12-28T02:41:23;100777.97;;;11.04;82.82
68871;BME280;55906;52.278;6.808;2023-12-28T02:43:52;100774.53;;;11.08;83.24
68871;BME280;55906;52.278;6.808;2023-12-28T02:46:19;100778.88;;;11.06;83.07
68871;BME280;55906;52.278;6.808;2023-12-28T02:48:45;100777.16;;;11.06;83.08
68871;BME280;55906;52.278;6.808;2023-12-28T02:51:12;100784.19;;;11.07;83.67
68871;BME280;55906;52.278;6.808;2023-12-28T02:53:41;100786.91;;;11.12;83.35
68871;BME280;55906;52.278;6.808;2023-12-28T02:56:08;100791.97;;;11.03;83.48
68871;BME280;55906;52.278;6.808;2023-12-28T02:58:34;100781.53;;;11.06;83.53
68871;BME280;55906;52.278;6.808;2023-12-28T03:01:03;100778.66;;;10.95;84.40
68871;BME280;55906;52.278;6.808;2023-12-28T03:03:30;100769.16;;;11.02;84.57
68871;BME280;55906;52.278;6.808;2023-12-28T03:05:56;100752.44;;;11.00;84.58
68871;BME280;55906;52.278;6.808;2023-12-28T03:08:24;100768.22;;;11.00;84.02
68871;BME280;55906;52.278;6.808;2023-12-28T03:10:50;100757.56;;;10.94;85.18
68871;BME280;55906;52.278;6.808;2023-12-28T03:13:18;100765.41;;;10.92;84.80
68871;BME280;55906;52.278;6.808;2023-12-28T03:15:44;100759.38;;;10.96;85.04
68871;BME280;55906;52.278;6.808;2023-12-28T03:18:12;100763.63;;;10.91;85.22
68871;BME280;55906;52.278;6.808;2023-12-28T03:20:39;100745.19;;;10.89;85.94
68871;BME280;55906;52.278;6.808;2023-12-28T03:23:06;100754.84;;;10.90;85.65
68871;BME280;55906;52.278;6.808;2023-12-28T03:25:33;100757.38;;;10.86;86.11
68871;BME280;55906;52.278;6.808;2023-12-28T03:27:59;100757.41;;;10.87;85.91
68871;BME280;55906;52.278;6.808;2023-12-28T03:30:26;100757.38;;;10.86;86.31
68871;BME280;55906;52.278;6.808;2023-12-28T03:32:53;100763.53;;;10.86;86.23
68871;BME280;55906;52.278;6.808;2023-12-28T03:35:21;100756.59;;;10.90;86.53
68871;BME280;55906;52.278;6.808;2023-12-28T03:37:47;100749.53;;;10.87;86.58
68871;BME280;55906;52.278;6.808;2023-12-28T03:40:14;100750.44;;;10.89;86.33
68871;BME280;55906;52.278;6.808;2023-12-28T03:42:41;100750.31;;;10.83;86.42
68871;BME280;55906;52.278;6.808;2023-12-28T03:45:09;100760.81;;;10.82;86.29
68871;BME280;55906;52.278;6.808;2023-12-28T03:47:37;100747.47;;;10.74;87.03
68871;BME280;55906;52.278;6.808;2023-12-28T03:50:04;100764.97;;;10.72;86.74
68871;BME280;55906;52.278;6.808;2023-12-28T03:52:33;100742.13;;;10.71;87.00
68871;BME280;55906;52.278;6.808;2023-12-28T03:54:59;100750.09;;;10.74;86.94
68871;BME280;55906;52.278;6.808;2023-12-28T03:57:26;100773.75;;;10.73;86.74
68871;BME280;55906;52.278;6.808;2023-12-28T03:59:52;100749.22;;;10.74;87.24
68871;BME280;55906;52.278;6.808;2023-12-28T04:02:20;100749.16;;;10.72;87.24
68871;BME280;55906;52.278;6.808;2023-12-28T04:04:47;100757.22;;;10.78;86.86
68871;BME280;55906;52.278;6.808;2023-12-28T04:07:13;100760.69;;;10.77;86.67
68871;BME280;55906;52.278;6.808;2023-12-28T04:09:42;100759.84;;;10.78;86.40
68871;BME280;55906;52.278;6.808;2023-12-28T04:12:09;100758.94;;;10.78;86.55
68871;BME280;55906;52.278;6.808;2023-12-28T04:14:36;100768.84;;;10.88;86.58
68871;BME280;55906;52.278;6.808;2023-12-28T04:17:03;100782.75;;;10.82;86.51
68871;BME280;55906;52.278;6.808;2023-12-28T04:19:30;100779.44;;;10.91;86.19
68871;BME280;55906;52.278;6.808;2023-12-28T04:21:57;100767.09;;;10.88;85.90
68871;BME280;55906;52.278;6.808;2023-12-28T04:24:24;100755.69;;;10.88;86.54
68871;BME280;55906;52.278;6.808;2023-12-28T04:26:52;100762.03;;;10.98;86.00
68871;BME280;55906;52.278;6.808;2023-12-28T04:29:18;100763.69;;;10.93;86.42
68871;BME280;55906;52.278;6.808;2023-12-28T04:31:46;100779.53;;;10.96;86.52
68871;BME280;55906;52.278;6.808;2023-12-28T04:34:13;100781.28;;;10.95;86.47
68871;BME280;55906;52.278;6.808;2023-12-28T04:36:40;100763.72;;;10.94;86.21
68871;BME280;55906;52.278;6.808;2023-12-28T04:39:07;100762.97;;;11.00;86.31
68871;BME280;55906;52.278;6.808;2023-12-28T04:41:34;100759.41;;;10.98;86.16
68871;BME280;55906;52.278;6.808;2023-12-28T04:44:02;100759.38;;;10.96;86.22
68871;BME280;55906;52.278;6.808;2023-12-28T04:46:29;100751.50;;;10.98;86.24
68871;BME280;55906;52.278;6.808;2023-12-28T04:48:55;100755.13;;;11.03;86.07
68871;BME280;55906;52.278;6.808;2023-12-28T04:51:22;100756.78;;;10.98;86.62
68871;BME280;55906;52.278;6.808;2023-12-28T04:53:49;100752.44;;;11.00;86.23
68871;BME280;55906;52.278;6.808;2023-12-28T04:56:18;100753.34;;;11.02;86.54
68871;BME280;55906;52.278;6.808;2023-12-28T04:58:45;100748.09;;;11.02;86.45
68871;BME280;55906;52.278;6.808;2023-12-28T05:01:13;100747.13;;;10.98;86.74
68871;BME280;55906;52.278;6.808;2023-12-28T05:03:40;100747.03;;;10.94;87.00
68871;BME280;55906;52.278;6.808;2023-12-28T05:06:07;100754.84;;;10.90;87.22
68871;BME280;55906;52.278;6.808;2023-12-28T05:08:33;100752.31;;;10.95;87.48
68871;BME280;55906;52.278;6.808;2023-12-28T05:11:00;100761.09;;;10.96;86.80
68871;BME280;55906;52.278;6.808;2023-12-28T05:13:27;100758.47;;;10.96;87.58
68871;BME280;55906;52.278;6.808;2023-12-28T05:15:54;100762.03;;;10.98;87.06
68871;BME280;55906;52.278;6.808;2023-12-28T05:18:22;100778.69;;;10.97;87.41
68871;BME280;55906;52.278;6.808;2023-12-28T05:20:48;100781.28;;;10.95;86.88
68871;BME280;55906;52.278;6.808;2023-12-28T05:23:15;100769.91;;;10.96;87.33
68871;BME280;55906;52.278;6.808;2023-12-28T05:25:42;100776.84;;;10.93;87.72
68871;BME280;55906;52.278;6.808;2023-12-28T05:28:08;100783.03;;;10.95;87.44
68871;BME280;55906;52.278;6.808;2023-12-28T05:30:35;100792.88;;;11.03;87.38
68871;BME280;55906;52.278;6.808;2023-12-28T05:33:02;100781.38;;;11.00;87.59
68871;BME280;55906;52.278;6.808;2023-12-28T05:35:30;100791.06;;;11.01;86.82
68871;BME280;55906;52.278;6.808;2023-12-28T05:37:56;100800.72;;;11.02;87.10
68871;BME280;55906;52.278;6.808;2023-12-28T05:40:23;100800.88;;;11.08;86.83
68871;BME280;55906;52.278;6.808;2023-12-28T05:42:50;100802.47;;;11.01;87.44
68871;BME280;55906;52.278;6.808;2023-12-28T05:45:16;100788.50;;;11.04;86.89
68871;BME280;55906;52.278;6.808;2023-12-28T05:47:43;100799.13;;;11.08;86.70
68871;BME280;55906;52.278;6.808;2023-12-28T05:50:10;100800.00;;;11.09;86.33
68871;BME280;55906;52.278;6.808;2023-12-28T05:52:38;100806.19;;;11.11;86.73
68871;BME280;55906;52.278;6.808;2023-12-28T05:55:05;100807.06;;;11.10;86.25
68871;BME280;55906;52.278;6.808;2023-12-28T05:57:31;100792.16;;;11.10;86.36
68871;BME280;55906;52.278;6.808;2023-12-28T05:59:58;100795.63;;;11.09;85.84
68871;BME280;55906;52.278;6.808;2023-12-28T06:02:25;100781.66;;;11.12;85.93
68871;BME280;55906;52.278;6.808;2023-12-28T06:04:51;100783.47;;;11.14;86.44
68871;BME280;55906;52.278;6.808;2023-12-28T06:07:18;100784.31;;;11.13;86.02
68871;BME280;55906;52.278;6.808;2023-12-28T06:09:46;100781.66;;;11.12;86.06
68871;BME280;55906;52.278;6.808;2023-12-28T06:12:13;100786.91;;;11.12;86.15
68871;BME280;55906;52.278;6.808;2023-12-28T06:14:40;100769.28;;;11.08;85.85
68871;BME280;55906;52.278;6.808;2023-12-28T06:17:07;100773.69;;;11.09;86.24
68871;BME280;55906;52.278;6.808;2023-12-28T06:19:34;100783.44;;;11.13;85.68
68871;BME280;55906;52.278;6.808;2023-12-28T06:22:00;100774.69;;;11.14;85.89
68871;BME280;55906;52.278;6.808;2023-12-28T06:24:27;100765.00;;;11.13;85.32
68871;BME280;55906;52.278;6.808;2023-12-28T06:26:55;100768.63;;;11.18;84.88
68871;BME280;55906;52.278;6.808;2023-12-28T06:29:22;100774.81;;;11.20;84.83
68871;BME280;55906;52.278;6.808;2023-12-28T06:31:48;100778.38;;;11.22;84.49
68871;BME280;55906;52.278;6.808;2023-12-28T06:34:15;100771.34;;;11.22;84.39
68871;BME280;55906;52.278;6.808;2023-12-28T06:36:41;100771.13;;;11.12;84.71
68871;BME280;55906;52.278;6.808;2023-12-28T06:39:08;100787.16;;;11.22;84.34
68871;BME280;55906;52.278;6.808;2023-12-28T06:41:35;100787.91;;;11.17;84.50
68871;BME280;55906;52.278;6.808;2023-12-28T06:44:03;100805.66;;;11.26;83.68
68871;BME280;55906;52.278;6.808;2023-12-28T06:46:30;100791.53;;;11.22;83.65
68871;BME280;55906;52.278;6.808;2023-12-28T06:48:56;100787.13;;;11.21;83.78
68871;BME280;55906;52.278;6.808;2023-12-28T06:51:24;100797.69;;;11.22;83.84
68871;BME280;55906;52.278;6.808;2023-12-28T06:53:51;100790.59;;;11.20;83.58
68871;BME280;55906;52.278;6.808;2023-12-28T06:56:18;100785.47;;;11.26;83.50
68871;BME280;55906;52.278;6.808;2023-12-28T06:58:45;100800.34;;;11.24;82.98
68871;BME280;55906;52.278;6.808;2023-12-28T07:01:13;100793.34;;;11.25;83.17
68871;BME280;55906;52.278;6.808;2023-12-28T07:03:39;100790.75;;;11.26;82.83
68871;BME280;55906;52.278;6.808;2023-12-28T07:06:06;100781.09;;;11.27;82.84
68871;BME280;55906;52.278;6.808;2023-12-28T07:08:33;100774.09;;;11.27;82.99
68871;BME280;55906;52.278;6.808;2023-12-28T07:11:01;100787.34;;;11.32;82.68
68871;BME280;55906;52.278;6.808;2023-12-28T07:13:28;100788.16;;;11.29;82.21
68871;BME280;55906;52.278;6.808;2023-12-28T07:15:55;100810.22;;;11.34;82.95
68871;BME280;55906;52.278;6.808;2023-12-28T07:18:23;100811.13;;;11.35;82.75
68871;BME280;55906;52.278;6.808;2023-12-28T07:20:50;100810.16;;;11.31;82.37
68871;BME280;55906;52.278;6.808;2023-12-28T07:23:16;100817.34;;;11.38;82.23
68871;BME280;55906;52.278;6.808;2023-12-28T07:25:43;100792.91;;;11.45;81.39
68871;BME280;55906;52.278;6.808;2023-12-28T07:28:10;100796.31;;;11.40;81.25
68871;BME280;55906;52.278;6.808;2023-12-28T07:30:37;100800.88;;;11.48;81.20
68871;BME280;55906;52.278;6.808;2023-12-28T07:33:04;100804.13;;;11.37;80.79
68871;BME280;55906;52.278;6.808;2023-12-28T07:35:32;100815.63;;;11.40;80.72
68871;BME280;55906;52.278;6.808;2023-12-28T07:37:59;100809.56;;;11.44;80.48
68871;BME280;55906;52.278;6.808;2023-12-28T07:40:25;100823.69;;;11.48;80.35
68871;BME280;55906;52.278;6.808;2023-12-28T07:42:52;100837.84;;;11.53;80.34
68871;BME280;55906;52.278;6.808;2023-12-28T07:45:19;100805.31;;;11.51;79.61
68871;BME280;55906;52.278;6.808;2023-12-28T07:47:48;100831.69;;;11.52;79.84
68871;BME280;55906;52.278;6.808;2023-12-28T07:50:15;100836.91;;;11.49;79.72
68871;BME280;55906;52.278;6.808;2023-12-28T07:52:43;100843.13;;;11.53;79.79
68871;BME280;55906;52.278;6.808;2023-12-28T07:55:10;100845.72;;;11.51;80.06
68871;BME280;55906;52.278;6.808;2023-12-28T07:57:37;100829.03;;;11.51;80.10
68871;BME280;55906;52.278;6.808;2023-12-28T08:00:04;100850.13;;;11.52;79.47
68871;BME280;55906;52.278;6.808;2023-12-28T08:02:32;100866.81;;;11.51;79.85
68871;BME280;55906;52.278;6.808;2023-12-28T08:04:59;100865.09;;;11.53;79.60
68871;BME280;55906;52.278;6.808;2023-12-28T08:07:26;100846.69;;;11.55;79.22
68871;BME280;55906;52.278;6.808;2023-12-28T08:09:54;100859.03;;;11.58;79.54
68871;BME280;55906;52.278;6.808;2023-12-28T08:12:21;100850.22;;;11.57;79.42
68871;BME280;55906;52.278;6.808;2023-12-28T08:14:49;100850.16;;;11.54;79.79
68871;BME280;55906;52.278;6.808;2023-12-28T08:17:16;100873.09;;;11.58;79.52
68871;BME280;55906;52.278;6.808;2023-12-28T08:19:43;100874.78;;;11.54;79.35
68871;BME280;55906;52.278;6.808;2023-12-28T08:22:10;100882.78;;;11.59;79.46
68871;BME280;55906;52.278;6.808;2023-12-28T08:24:36;100881.16;;;11.66;79.17
68871;BME280;55906;52.278;6.808;2023-12-28T08:27:05;100867.91;;;11.63;78.93
68871;BME280;55906;52.278;6.808;2023-12-28T08:29:32;100883.88;;;11.69;78.94
68871;BME280;55906;52.278;6.808;2023-12-28T08:31:59;100892.84;;;11.77;78.24
68871;BME280;55906;52.278;6.808;2023-12-28T08:34:25;100893.72;;;11.76;78.53
68871;BME280;55906;52.278;6.808;2023-12-28T08:36:53;100884.06;;;11.76;78.80
68871;BME280;55906;52.278;6.808;2023-12-28T08:39:19;100898.13;;;11.77;78.79
68871;BME280;55906;52.278;6.808;2023-12-28T08:41:46;100887.53;;;11.74;78.60
68871;BME280;55906;52.278;6.808;2023-12-28T08:44:14;100886.78;;;11.79;78.51
68871;BME280;55906;52.278;6.808;2023-12-28T08:46:41;100886.81;;;11.81;78.44
68871;BME280;55906;52.278;6.808;2023-12-28T08:49:08;100880.72;;;11.83;78.30
68871;BME280;55906;52.278;6.808;2023-12-28T08:51:34;100872.03;;;11.88;77.90
68871;BME280;55906;52.278;6.808;2023-12-28T08:54:01;100873.75;;;11.85;78.33
68871;BME280;55906;52.278;6.808;2023-12-28T08:56:27;100870.25;;;11.87;78.21
68871;BME280;55906;52.278;6.808;2023-12-28T08:58:55;100884.38;;;11.90;77.76
68871;BME280;55906;52.278;6.808;2023-12-28T09:01:23;100864.06;;;11.84;77.96
68871;BME280;55906;52.278;6.808;2023-12-28T09:03:52;100860.59;;;11.87;77.37
68871;BME280;55906;52.278;6.808;2023-12-28T09:06:20;100859.75;;;11.90;77.53
68871;BME280;55906;52.278;6.808;2023-12-28T09:08:50;100858.78;;;11.84;77.83
68871;BME280;55906;52.278;6.808;2023-12-28T09:11:17;100867.53;;;11.82;77.26
68871;BME280;55906;52.278;6.808;2023-12-28T09:13:43;100883.53;;;11.91;76.79
68871;BME280;55906;52.278;6.808;2023-12-28T09:16:11;100887.97;;;11.94;76.36
68871;BME280;55906;52.278;6.808;2023-12-28T09:18:40;100886.25;;;11.96;76.77
68871;BME280;55906;52.278;6.808;2023-12-28T09:21:08;100873.03;;;11.94;76.20
68871;BME280;55906;52.278;6.808;2023-12-28T09:23:36;100894.19;;;11.97;76.07
68871;BME280;55906;52.278;6.808;2023-12-28T09:26:04;100891.69;;;12.03;76.11
68871;BME280;55906;52.278;6.808;2023-12-28T09:28:30;100893.38;;;12.00;76.00
68871;BME280;55906;52.278;6.808;2023-12-28T09:30:57;100913.56;;;11.99;76.00
68871;BME280;55906;52.278;6.808;2023-12-28T09:33:24;100913.69;;;12.05;75.54
68871;BME280;55906;52.278;6.808;2023-12-28T09:35:52;100925.13;;;12.06;75.03
68871;BME280;55906;52.278;6.808;2023-12-28T09:38:19;100898.84;;;12.10;75.15
68871;BME280;55906;52.278;6.808;2023-12-28T09:40:47;100913.97;;;12.19;75.08
68871;BME280;55906;52.278;6.808;2023-12-28T09:43:21;100914.00;;;12.21;75.26
68871;BME280;55906;52.278;6.808;2023-12-28T09:45:48;100912.19;;;12.18;74.99
68871;BME280;55906;52.278;6.808;2023-12-28T09:48:16;100914.88;;;12.21;74.89
68871;BME280;55906;52.278;6.808;2023-12-28T09:50:43;100916.53;;;12.16;74.61
68871;BME280;55906;52.278;6.808;2023-12-28T09:53:11;100929.13;;;12.29;74.58
68871;BME280;55906;52.278;6.808;2023-12-28T09:55:38;100928.97;;;12.22;74.25
68871;BME280;55906;52.278;6.808;2023-12-28T09:58:05;100916.00;;;12.34;74.37
68871;BME280;55906;52.278;6.808;2023-12-28T10:00:32;100909.69;;;12.24;74.47
68871;BME280;55906;52.278;6.808;2023-12-28T10:02:59;100917.75;;;12.32;74.85
68871;BME280;55906;52.278;6.808;2023-12-28T10:05:26;100914.97;;;12.26;74.73
68871;BME280;55906;52.278;6.808;2023-12-28T10:07:55;100921.22;;;12.29;74.83
68871;BME280;55906;52.278;6.808;2023-12-28T10:10:23;100914.22;;;12.31;74.72
68871;BME280;55906;52.278;6.808;2023-12-28T10:12:50;100913.28;;;12.29;75.01
68871;BME280;55906;52.278;6.808;2023-12-28T10:15:18;100915.25;;;12.39;74.27
68871;BME280;55906;52.278;6.808;2023-12-28T10:17:45;100901.16;;;12.39;73.96
68871;BME280;55906;52.278;6.808;2023-12-28T10:20:14;100901.34;;;12.48;73.99
68871;BME280;55906;52.278;6.808;2023-12-28T10:22:41;100904.91;;;12.52;73.34
68871;BME280;55906;52.278;6.808;2023-12-28T10:25:08;100903.16;;;12.52;73.13
68871;BME280;55906;52.278;6.808;2023-12-28T10:27:39;100902.44;;;12.61;73.78
68871;BME280;55906;52.278;6.808;2023-12-28T10:30:08;100885.81;;;12.65;73.09
68871;BME280;55906;52.278;6.808;2023-12-28T10:32:35;100912.91;;;12.56;73.63
68871;BME280;55906;52.278;6.808;2023-12-28T10:35:02;100929.59;;;12.54;73.22
68871;BME280;55906;52.278;6.808;2023-12-28T10:37:31;100925.13;;;12.51;73.57
68871;BME280;55906;52.278;6.808;2023-12-28T10:39:59;100913.75;;;12.54;73.55
68871;BME280;55906;52.278;6.808;2023-12-28T10:42:29;100922.59;;;12.56;73.97
68871;BME280;55906;52.278;6.808;2023-12-28T10:45:02;100926.16;;;12.59;72.85
68871;BME280;55906;52.278;6.808;2023-12-28T10:47:32;100914.81;;;12.63;73.08
68871;BME280;55906;52.278;6.808;2023-12-28T10:50:02;100924.31;;;12.54;72.72
68871;BME280;55906;52.278;6.808;2023-12-28T10:52:31;100913.88;;;12.60;72.87
68871;BME280;55906;52.278;6.808;2023-12-28T10:55:08;100919.16;;;12.60;72.46
68871;BME280;55906;52.278;6.808;2023-12-28T10:57:43;100917.53;;;12.68;72.63
68871;BME280;55906;52.278;6.808;2023-12-28T11:00:16;100928.94;;;12.65;72.75
68871;BME280;55906;52.278;6.808;2023-12-28T11:02:45;100912.38;;;12.75;72.75
68871;BME280;55906;52.278;6.808;2023-12-28T11:05:12;100922.91;;;12.74;72.25
68871;BME280;55906;52.278;6.808;2023-12-28T11:07:39;100909.69;;;12.72;72.32
68871;BME280;55906;52.278;6.808;2023-12-28T11:10:08;100913.16;;;12.68;72.39
68871;BME280;55906;52.278;6.808;2023-12-28T11:12:36;100908.78;;;12.70;71.86
68871;BME280;55906;52.278;6.808;2023-12-28T11:15:04;100898.38;;;12.79;72.15
68871;BME280;55906;52.278;6.808;2023-12-28T11:17:34;100923.13;;;12.86;71.85
68871;BME280;55906;52.278;6.808;2023-12-28T11:20:02;100916.09;;;12.87;70.51
68871;BME280;55906;52.278;6.808;2023-12-28T11:22:30;100899.44;;;12.91;70.72
68871;BME280;55906;52.278;6.808;2023-12-28T11:24:57;100896.88;;;12.95;70.64
68871;BME280;55906;52.278;6.808;2023-12-28T11:27:24;100900.25;;;12.87;69.86
68871;BME280;55906;52.278;6.808;2023-12-28T11:29:51;100908.06;;;12.80;70.00
68871;BME280;55906;52.278;6.808;2023-12-28T11:32:19;100907.25;;;12.83;69.85
68871;BME280;55906;52.278;6.808;2023-12-28T11:34:56;100906.44;;;12.87;69.24
68871;BME280;55906;52.278;6.808;2023-12-28T11:37:23;100894.81;;;12.77;68.86
68871;BME280;55906;52.278;6.808;2023-12-28T11:39:52;100901.91;;;12.80;68.27
68871;BME280;55906;52.278;6.808;2023-12-28T11:42:20;100906.31;;;12.79;67.89
68871;BME280;55906;52.278;6.808;2023-12-28T11:44:47;100899.19;;;12.75;68.09
68871;BME280;55906;52.278;6.808;2023-12-28T11:47:21;100893.97;;;12.78;68.17
68871;BME280;55906;52.278;6.808;2023-12-28T11:49:50;100907.13;;;12.77;67.83
68871;BME280;55906;52.278;6.808;2023-12-28T11:52:25;100915.09;;;12.78;67.54
68871;BME280;55906;52.278;6.808;2023-12-28T11:54:52;100903.72;;;12.82;67.68
68871;BME280;55906;52.278;6.808;2023-12-28T11:57:19;100901.19;;;12.90;67.71
68871;BME280;55906;52.278;6.808;2023-12-28T11:59:48;100906.50;;;12.92;67.86
68871;BME280;55906;52.278;6.808;2023-12-28T12:02:15;100897.69;;;12.90;67.31
68871;BME280;55906;52.278;6.808;2023-12-28T12:04:41;100888.03;;;12.92;67.29
68871;BME280;55906;52.278;6.808;2023-12-28T12:07:11;100910.81;;;12.87;67.00
68871;BME280;55906;52.278;6.808;2023-12-28T12:09:37;100895.00;;;12.88;67.32
68871;BME280;55906;52.278;6.808;2023-12-28T12:12:06;100910.00;;;12.91;67.85
68871;BME280;55906;52.278;6.808;2023-12-28T12:14:34;100896.00;;;12.95;67.33
68871;BME280;55906;52.278;6.808;2023-12-28T12:17:01;100893.34;;;12.95;67.23
68871;BME280;55906;52.278;6.808;2023-12-28T12:19:28;100872.19;;;12.92;67.94
68871;BME280;55906;52.278;6.808;2023-12-28T12:21:56;100875.59;;;12.86;67.56
68871;BME280;55906;52.278;6.808;2023-12-28T12:24:24;100875.75;;;12.95;67.43
68871;BME280;55906;52.278;6.808;2023-12-28T12:26:51;100890.84;;;13.01;67.89
68871;BME280;55906;52.278;6.808;2023-12-28T12:29:18;100878.38;;;12.94;67.88
68871;BME280;55906;52.278;6.808;2023-12-28T12:31:47;100868.72;;;12.96;67.60
68871;BME280;55906;52.278;6.808;2023-12-28T12:34:16;100871.31;;;12.93;67.53
68871;BME280;55906;52.278;6.808;2023-12-28T12:36:43;100855.47;;;12.93;68.04
68871;BME280;55906;52.278;6.808;2023-12-28T12:39:10;100874.72;;;12.86;68.28
68871;BME280;55906;52.278;6.808;2023-12-28T12:41:38;100879.91;;;12.79;69.39
68871;BME280;55906;52.278;6.808;2023-12-28T12:44:05;100875.44;;;12.75;70.00
68871;BME280;55906;52.278;6.808;2023-12-28T12:46:31;100871.06;;;12.77;70.04
68871;BME280;55906;52.278;6.808;2023-12-28T12:48:59;100863.19;;;12.80;70.72
68871;BME280;55906;52.278;6.808;2023-12-28T12:51:28;100853.25;;;12.64;70.70